sensor_id;sensor_type;location;lat;lon;timestamp;P1;durP1;ratioP1;P2;durP2;ratioP2
64633;SDS011;51043;52.406;9.690;2024-01-10T00:01:36;26.00;;;10.83;;
64633;SDS011;51043;52.406;9.690;2024-01-10T00:04:19;16.43;;;9.40;;
64633;SDS011;51043;52.406;9.690;2024-01-10T00:07:10;16.03;;;9.27;;
64633;SDS011;51043;52.406;9.690;2024-01-10T00:09:41;19.63;;;10.00;;
64633;SDS011;51043;52.406;9.690;2024-01-10T00:12:09;20.53;;;11.20;;
64633;SDS011;51043;52.406;9.690;2024-01-10T00:14:42;27.23;;;14.37;;
64633;SDS011;51043;52.406;9.690;2024-01-10T00:17:10;16.30;;;8.90;;
64633;SDS011;51043;52.406;9.690;2024-01-10T00:19:44;15.87;;;9.57;;
64633;SDS011;51043;52.406;9.690;2024-01-10T00:22:13;21.57;;;10.43;;
64633;SDS011;51043;52.406;9.690;2024-01-10T00:24:44;20.67;;;11.93;;
64633;SDS011;51043;52.406;9.690;2024-01-10T00:27:13;17.50;;;10.03;;
64633;SDS011;51043;52.406;9.690;2024-01-10T00:29:43;15.53;;;9.27;;
64633;SDS011;51043;52.406;9.690;2024-01-10T00:32:13;15.33;;;9.67;;
64633;SDS011;51043;52.406;9.690;2024-01-10T00:34:42;13.90;;;8.63;;
64633;SDS011;51043;52.406;9.690;2024-01-10T00:37:10;16.70;;;8.67;;
64633;SDS011;51043;52.406;9.690;2024-01-10T00:39:39;14.17;;;8.50;;
64633;SDS011;51043;52.406;9.690;2024-01-10T00:42:07;15.30;;;8.63;;
64633;SDS011;51043;52.406;9.690;2024-01-10T00:44:36;16.53;;;9.03;;
64633;SDS011;51043;52.406;9.690;2024-01-10T00:47:07;17.10;;;9.60;;
64633;SDS011;51043;52.406;9.690;2024-01-10T00:49:35;15.80;;;10.00;;
64633;SDS011;51043;52.406;9.690;2024-01-10T00:52:04;14.20;;;8.30;;
64633;SDS011;51043;52.406;9.690;2024-01-10T00:54:32;13.97;;;8.93;;
64633;SDS011;51043;52.406;9.690;2024-01-10T00:57:01;15.30;;;8.87;;
64633;SDS011;51043;52.406;9.690;2024-01-10T00:59:29;19.17;;;9.60;;
64633;SDS011;51043;52.406;9.690;2024-01-10T01:01:58;13.20;;;8.70;;
64633;SDS011;51043;52.406;9.690;2024-01-10T01:04:28;17.73;;;9.60;;
64633;SDS011;51043;52.406;9.690;2024-01-10T01:06:57;18.03;;;9.00;;
64633;SDS011;51043;52.406;9.690;2024-01-10T01:09:25;15.13;;;9.30;;
64633;SDS011;51043;52.406;9.690;2024-01-10T01:11:57;12.67;;;8.20;;
64633;SDS011;51043;52.406;9.690;2024-01-10T01:14:25;12.43;;;8.30;;
64633;SDS011;51043;52.406;9.690;2024-01-10T01:16:54;15.97;;;9.03;;
64633;SDS011;51043;52.406;9.690;2024-01-10T01:19:22;17.40;;;8.63;;
64633;SDS011;51043;52.406;9.690;2024-01-10T01:21:53;16.90;;;9.17;;
64633;SDS011;51043;52.406;9.690;2024-01-10T01:24:21;15.87;;;9.00;;
64633;SDS011;51043;52.406;9.690;2024-01-10T01:26:50;15.70;;;9.90;;
64633;SDS011;51043;52.406;9.690;2024-01-10T01:29:18;17.57;;;9.77;;
64633;SDS011;51043;52.406;9.690;2024-01-10T01:31:47;16.40;;;9.00;;
64633;SDS011;51043;52.406;9.690;2024-01-10T01:34:15;18.50;;;9.63;;
64633;SDS011;51043;52.406;9.690;2024-01-10T01:36:44;17.57;;;9.50;;
64633;SDS011;51043;52.406;9.690;2024-01-10T01:39:15;15.47;;;9.50;;
64633;SDS011;51043;52.406;9.690;2024-01-10T01:41:43;16.57;;;9.70;;
64633;SDS011;51043;52.406;9.690;2024-01-10T01:44:13;20.67;;;10.00;;
64633;SDS011;51043;52.406;9.690;2024-01-10T01:46:42;16.93;;;9.83;;
64633;SDS011;51043;52.406;9.690;2024-01-10T01:49:13;15.53;;;9.93;;
64633;SDS011;51043;52.406;9.690;2024-01-10T01:51:42;15.23;;;9.63;;
64633;SDS011;51043;52.406;9.690;2024-01-10T01:54:11;13.13;;;8.97;;
64633;SDS011;51043;52.406;9.690;2024-01-10T01:56:41;18.87;;;10.27;;
64633;SDS011;51043;52.406;9.690;2024-01-10T01:59:10;15.47;;;9.43;;
64633;SDS011;51043;52.406;9.690;2024-01-10T02:01:39;18.40;;;10.30;;
64633;SDS011;51043;52.406;9.690;2024-01-10T02:04:08;15.43;;;9.30;;
64633;SDS011;51043;52.406;9.690;2024-01-10T02:06:44;16.80;;;9.57;;
64633;SDS011;51043;52.406;9.690;2024-01-10T02:09:13;16.23;;;11.00;;
64633;SDS011;51043;52.406;9.690;2024-01-10T02:11:44;19.20;;;10.97;;
64633;SDS011;51043;52.406;9.690;2024-01-10T02:14:12;14.60;;;9.33;;
64633;SDS011;51043;52.406;9.690;2024-01-10T02:16:41;18.20;;;9.57;;
64633;SDS011;51043;52.406;9.690;2024-01-10T02:19:19;15.03;;;9.57;;
64633;SDS011;51043;52.406;9.690;2024-01-10T02:21:49;21.37;;;10.50;;
64633;SDS011;51043;52.406;9.690;2024-01-10T02:24:18;16.27;;;9.60;;
64633;SDS011;51043;52.406;9.690;2024-01-10T02:26:49;15.50;;;9.77;;
64633;SDS011;51043;52.406;9.690;2024-01-10T02:29:19;18.43;;;10.37;;
64633;SDS011;51043;52.406;9.690;2024-01-10T02:31:50;17.13;;;9.73;;
64633;SDS011;51043;52.406;9.690;2024-01-10T02:34:18;21.03;;;11.77;;
64633;SDS011;51043;52.406;9.690;2024-01-10T02:36:47;19.30;;;11.57;;
64633;SDS011;51043;52.406;9.690;2024-01-10T02:39:15;16.50;;;10.50;;
64633;SDS011;51043;52.406;9.690;2024-01-10T02:41:43;16.57;;;9.90;;
64633;SDS011;51043;52.406;9.690;2024-01-10T02:44:13;18.10;;;10.80;;
64633;SDS011;51043;52.406;9.690;2024-01-10T02:46:42;17.80;;;9.73;;
64633;SDS011;51043;52.406;9.690;2024-01-10T02:49:11;17.93;;;10.23;;
64633;SDS011;51043;52.406;9.690;2024-01-10T02:51:39;18.13;;;10.57;;
64633;SDS011;51043;52.406;9.690;2024-01-10T02:54:08;18.00;;;10.40;;
64633;SDS011;51043;52.406;9.690;2024-01-10T02:56:39;17.63;;;9.80;;
64633;SDS011;51043;52.406;9.690;2024-01-10T02:59:07;19.60;;;10.30;;
64633;SDS011;51043;52.406;9.690;2024-01-10T03:01:38;18.40;;;10.10;;
64633;SDS011;51043;52.406;9.690;2024-01-10T03:04:08;22.23;;;10.70;;
64633;SDS011;51043;52.406;9.690;2024-01-10T03:06:36;16.97;;;10.27;;
64633;SDS011;51043;52.406;9.690;2024-01-10T03:09:05;16.73;;;10.43;;
64633;SDS011;51043;52.406;9.690;2024-01-10T03:11:33;17.67;;;10.63;;
64633;SDS011;51043;52.406;9.690;2024-01-10T03:14:03;15.37;;;10.13;;
64633;SDS011;51043;52.406;9.690;2024-01-10T03:16:31;16.73;;;9.80;;
64633;SDS011;51043;52.406;9.690;2024-01-10T03:19:01;15.80;;;10.10;;
64633;SDS011;51043;52.406;9.690;2024-01-10T03:21:29;17.40;;;10.00;;
64633;SDS011;51043;52.406;9.690;2024-01-10T03:23:58;15.97;;;9.50;;
64633;SDS011;51043;52.406;9.690;2024-01-10T03:26:27;16.77;;;10.57;;
64633;SDS011;51043;52.406;9.690;2024-01-10T03:28:57;19.07;;;10.50;;
64633;SDS011;51043;52.406;9.690;2024-01-10T03:31:26;18.23;;;9.87;;
64633;SDS011;51043;52.406;9.690;2024-01-10T03:33:54;17.60;;;9.83;;
64633;SDS011;51043;52.406;9.690;2024-01-10T03:36:24;18.57;;;10.47;;
64633;SDS011;51043;52.406;9.690;2024-01-10T03:38:52;18.03;;;10.20;;
64633;SDS011;51043;52.406;9.690;2024-01-10T03:41:24;27.30;;;11.47;;
64633;SDS011;51043;52.406;9.690;2024-01-10T03:43:53;21.43;;;10.73;;
64633;SDS011;51043;52.406;9.690;2024-01-10T03:46:21;22.60;;;10.77;;
64633;SDS011;51043;52.406;9.690;2024-01-10T03:48:50;18.50;;;10.67;;
64633;SDS011;51043;52.406;9.690;2024-01-10T03:51:19;16.43;;;10.63;;
64633;SDS011;51043;52.406;9.690;2024-01-10T03:53:49;24.47;;;11.73;;
64633;SDS011;51043;52.406;9.690;2024-01-10T03:56:17;19.13;;;11.43;;
64633;SDS011;51043;52.406;9.690;2024-01-10T03:58:46;21.27;;;11.90;;
64633;SDS011;51043;52.406;9.690;2024-01-10T04:01:15;23.13;;;12.77;;
64633;SDS011;51043;52.406;9.690;2024-01-10T04:03:44;23.37;;;12.37;;
64633;SDS011;51043;52.406;9.690;2024-01-10T04:06:12;21.30;;;12.83;;
64633;SDS011;51043;52.406;9.690;2024-01-10T04:08:41;21.13;;;11.90;;
64633;SDS011;51043;52.406;9.690;2024-01-10T04:11:11;27.70;;;12.53;;
64633;SDS011;51043;52.406;9.690;2024-01-10T04:13:40;24.53;;;14.57;;
64633;SDS011;51043;52.406;9.690;2024-01-10T04:16:08;26.10;;;14.77;;
64633;SDS011;51043;52.406;9.690;2024-01-10T04:18:36;25.60;;;14.63;;
64633;SDS011;51043;52.406;9.690;2024-01-10T04:21:05;25.90;;;15.13;;
64633;SDS011;51043;52.406;9.690;2024-01-10T04:23:34;29.73;;;15.57;;
64633;SDS011;51043;52.406;9.690;2024-01-10T04:26:04;29.83;;;14.97;;
64633;SDS011;51043;52.406;9.690;2024-01-10T04:28:36;27.83;;;16.40;;
64633;SDS011;51043;52.406;9.690;2024-01-10T04:31:08;32.97;;;17.43;;
64633;SDS011;51043;52.406;9.690;2024-01-10T04:33:37;33.33;;;17.77;;
64633;SDS011;51043;52.406;9.690;2024-01-10T04:36:05;31.93;;;17.43;;
64633;SDS011;51043;52.406;9.690;2024-01-10T04:38:35;29.57;;;17.53;;
64633;SDS011;51043;52.406;9.690;2024-01-10T04:41:03;32.60;;;18.00;;
64633;SDS011;51043;52.406;9.690;2024-01-10T04:43:31;33.27;;;18.23;;
64633;SDS011;51043;52.406;9.690;2024-01-10T04:46:01;33.83;;;18.30;;
64633;SDS011;51043;52.406;9.690;2024-01-10T04:48:29;36.40;;;18.80;;
64633;SDS011;51043;52.406;9.690;2024-01-10T04:50:57;33.07;;;19.00;;
64633;SDS011;51043;52.406;9.690;2024-01-10T04:53:25;32.10;;;18.90;;
64633;SDS011;51043;52.406;9.690;2024-01-10T04:55:53;33.07;;;18.47;;
64633;SDS011;51043;52.406;9.690;2024-01-10T04:58:22;38.67;;;19.40;;
64633;SDS011;51043;52.406;9.690;2024-01-10T05:00:50;33.67;;;19.70;;
64633;SDS011;51043;52.406;9.690;2024-01-10T05:03:19;36.40;;;19.57;;
64633;SDS011;51043;52.406;9.690;2024-01-10T05:05:48;34.23;;;19.30;;
64633;SDS011;51043;52.406;9.690;2024-01-10T05:08:16;36.20;;;19.37;;
64633;SDS011;51043;52.406;9.690;2024-01-10T05:10:47;35.13;;;19.33;;
64633;SDS011;51043;52.406;9.690;2024-01-10T05:13:15;34.60;;;18.50;;
64633;SDS011;51043;52.406;9.690;2024-01-10T05:15:45;36.63;;;19.97;;
64633;SDS011;51043;52.406;9.690;2024-01-10T05:18:13;35.87;;;19.73;;
64633;SDS011;51043;52.406;9.690;2024-01-10T05:20:43;33.57;;;18.53;;
64633;SDS011;51043;52.406;9.690;2024-01-10T05:23:12;39.27;;;19.83;;
64633;SDS011;51043;52.406;9.690;2024-01-10T05:25:41;33.40;;;19.13;;
64633;SDS011;51043;52.406;9.690;2024-01-10T05:28:09;34.07;;;19.87;;
64633;SDS011;51043;52.406;9.690;2024-01-10T05:30:37;36.70;;;20.10;;
64633;SDS011;51043;52.406;9.690;2024-01-10T05:33:05;33.53;;;19.27;;
64633;SDS011;51043;52.406;9.690;2024-01-10T05:35:33;32.90;;;19.57;;
64633;SDS011;51043;52.406;9.690;2024-01-10T05:38:03;32.03;;;18.13;;
64633;SDS011;51043;52.406;9.690;2024-01-10T05:40:33;34.40;;;18.97;;
64633;SDS011;51043;52.406;9.690;2024-01-10T05:43:01;29.83;;;17.57;;
64633;SDS011;51043;52.406;9.690;2024-01-10T05:45:33;35.80;;;19.87;;
64633;SDS011;51043;52.406;9.690;2024-01-10T05:48:02;31.23;;;18.27;;
64633;SDS011;51043;52.406;9.690;2024-01-10T05:50:30;30.03;;;19.20;;
64633;SDS011;51043;52.406;9.690;2024-01-10T05:52:59;37.03;;;19.47;;
64633;SDS011;51043;52.406;9.690;2024-01-10T05:55:30;31.30;;;19.13;;
64633;SDS011;51043;52.406;9.690;2024-01-10T05:57:58;38.17;;;20.27;;
64633;SDS011;51043;52.406;9.690;2024-01-10T06:00:26;36.47;;;20.30;;
64633;SDS011;51043;52.406;9.690;2024-01-10T06:02:54;35.87;;;19.30;;
64633;SDS011;51043;52.406;9.690;2024-01-10T06:05:22;37.73;;;18.47;;
64633;SDS011;51043;52.406;9.690;2024-01-10T06:07:50;40.60;;;20.73;;
64633;SDS011;51043;52.406;9.690;2024-01-10T06:10:19;36.93;;;20.53;;
64633;SDS011;51043;52.406;9.690;2024-01-10T06:12:48;39.63;;;20.23;;
64633;SDS011;51043;52.406;9.690;2024-01-10T06:15:16;34.17;;;18.50;;
64633;SDS011;51043;52.406;9.690;2024-01-10T06:17:46;33.03;;;17.77;;
64633;SDS011;51043;52.406;9.690;2024-01-10T06:20:15;37.90;;;19.27;;
64633;SDS011;51043;52.406;9.690;2024-01-10T06:22:44;36.50;;;18.77;;
64633;SDS011;51043;52.406;9.690;2024-01-10T06:25:14;29.87;;;18.23;;
64633;SDS011;51043;52.406;9.690;2024-01-10T06:27:42;31.83;;;17.63;;
64633;SDS011;51043;52.406;9.690;2024-01-10T06:30:12;36.57;;;17.73;;
64633;SDS011;51043;52.406;9.690;2024-01-10T06:32:40;33.40;;;17.73;;
64633;SDS011;51043;52.406;9.690;2024-01-10T06:35:08;29.17;;;18.27;;
64633;SDS011;51043;52.406;9.690;2024-01-10T06:37:37;28.27;;;17.83;;
64633;SDS011;51043;52.406;9.690;2024-01-10T06:40:05;38.33;;;18.80;;
64633;SDS011;51043;52.406;9.690;2024-01-10T06:42:35;35.40;;;19.20;;
64633;SDS011;51043;52.406;9.690;2024-01-10T06:45:04;34.57;;;19.80;;
64633;SDS011;51043;52.406;9.690;2024-01-10T06:47:35;32.33;;;19.53;;
64633;SDS011;51043;52.406;9.690;2024-01-10T06:50:04;41.33;;;19.90;;
64633;SDS011;51043;52.406;9.690;2024-01-10T06:52:32;36.80;;;19.17;;
64633;SDS011;51043;52.406;9.690;2024-01-10T06:55:00;33.33;;;19.80;;
64633;SDS011;51043;52.406;9.690;2024-01-10T06:57:30;36.27;;;19.20;;
64633;SDS011;51043;52.406;9.690;2024-01-10T06:59:58;39.63;;;23.13;;
64633;SDS011;51043;52.406;9.690;2024-01-10T07:02:28;41.93;;;23.73;;
64633;SDS011;51043;52.406;9.690;2024-01-10T07:04:57;42.23;;;21.93;;
64633;SDS011;51043;52.406;9.690;2024-01-10T07:07:26;37.87;;;21.67;;
64633;SDS011;51043;52.406;9.690;2024-01-10T07:09:54;33.40;;;18.63;;
64633;SDS011;51043;52.406;9.690;2024-01-10T07:12:23;42.80;;;22.30;;
64633;SDS011;51043;52.406;9.690;2024-01-10T07:14:53;35.57;;;20.90;;
64633;SDS011;51043;52.406;9.690;2024-01-10T07:17:22;34.90;;;19.70;;
64633;SDS011;51043;52.406;9.690;2024-01-10T07:19:51;34.00;;;19.40;;
64633;SDS011;51043;52.406;9.690;2024-01-10T07:22:20;36.67;;;20.23;;
64633;SDS011;51043;52.406;9.690;2024-01-10T07:24:49;37.67;;;19.27;;
64633;SDS011;51043;52.406;9.690;2024-01-10T07:27:18;35.20;;;19.73;;
64633;SDS011;51043;52.406;9.690;2024-01-10T07:29:47;36.47;;;19.70;;
64633;SDS011;51043;52.406;9.690;2024-01-10T07:32:16;38.73;;;20.43;;
64633;SDS011;51043;52.406;9.690;2024-01-10T07:34:47;32.37;;;19.07;;
64633;SDS011;51043;52.406;9.690;2024-01-10T07:37:15;36.17;;;19.17;;
64633;SDS011;51043;52.406;9.690;2024-01-10T07:39:49;36.20;;;20.80;;
64633;SDS011;51043;52.406;9.690;2024-01-10T07:42:17;34.67;;;19.53;;
64633;SDS011;51043;52.406;9.690;2024-01-10T07:44:46;31.47;;;18.80;;
64633;SDS011;51043;52.406;9.690;2024-01-10T07:47:15;35.27;;;20.77;;
64633;SDS011;51043;52.406;9.690;2024-01-10T07:49:43;36.90;;;20.30;;
64633;SDS011;51043;52.406;9.690;2024-01-10T07:52:13;40.93;;;20.87;;
64633;SDS011;51043;52.406;9.690;2024-01-10T07:54:42;39.83;;;20.97;;
64633;SDS011;51043;52.406;9.690;2024-01-10T07:57:12;34.60;;;19.57;;
64633;SDS011;51043;52.406;9.690;2024-01-10T07:59:40;37.93;;;19.50;;
64633;SDS011;51043;52.406;9.690;2024-01-10T08:02:10;42.83;;;21.67;;
64633;SDS011;51043;52.406;9.690;2024-01-10T08:04:39;34.57;;;20.47;;
64633;SDS011;51043;52.406;9.690;2024-01-10T08:07:07;46.70;;;26.40;;
64633;SDS011;51043;52.406;9.690;2024-01-10T08:09:36;39.27;;;20.77;;
64633;SDS011;51043;52.406;9.690;2024-01-10T08:12:05;42.70;;;21.50;;
64633;SDS011;51043;52.406;9.690;2024-01-10T08:14:35;31.33;;;19.27;;
64633;SDS011;51043;52.406;9.690;2024-01-10T08:17:04;38.30;;;19.73;;
64633;SDS011;51043;52.406;9.690;2024-01-10T08:19:33;35.90;;;19.73;;
64633;SDS011;51043;52.406;9.690;2024-01-10T08:22:02;33.93;;;20.53;;
64633;SDS011;51043;52.406;9.690;2024-01-10T08:24:31;41.97;;;21.33;;
64633;SDS011;51043;52.406;9.690;2024-01-10T08:26:59;39.40;;;21.13;;
64633;SDS011;51043;52.406;9.690;2024-01-10T08:29:27;37.73;;;19.67;;
64633;SDS011;51043;52.406;9.690;2024-01-10T08:31:59;35.67;;;19.67;;
64633;SDS011;51043;52.406;9.690;2024-01-10T08:34:30;44.67;;;22.30;;
64633;SDS011;51043;52.406;9.690;2024-01-10T08:36:58;40.83;;;20.57;;
64633;SDS011;51043;52.406;9.690;2024-01-10T08:39:26;37.83;;;20.73;;
64633;SDS011;51043;52.406;9.690;2024-01-10T08:41:58;42.63;;;21.77;;
64633;SDS011;51043;52.406;9.690;2024-01-10T08:44:26;36.73;;;19.57;;
64633;SDS011;51043;52.406;9.690;2024-01-10T08:46:55;44.77;;;21.67;;
64633;SDS011;51043;52.406;9.690;2024-01-10T08:49:25;38.83;;;20.33;;
64633;SDS011;51043;52.406;9.690;2024-01-10T08:51:54;40.33;;;19.63;;
64633;SDS011;51043;52.406;9.690;2024-01-10T08:54:23;35.17;;;19.80;;
64633;SDS011;51043;52.406;9.690;2024-01-10T08:56:53;38.10;;;20.73;;
64633;SDS011;51043;52.406;9.690;2024-01-10T08:59:23;38.10;;;21.13;;
64633;SDS011;51043;52.406;9.690;2024-01-10T09:01:52;39.37;;;21.03;;
64633;SDS011;51043;52.406;9.690;2024-01-10T09:04:20;39.30;;;21.07;;
64633;SDS011;51043;52.406;9.690;2024-01-10T09:06:50;30.93;;;17.30;;
64633;SDS011;51043;52.406;9.690;2024-01-10T09:09:18;36.37;;;20.20;;
64633;SDS011;51043;52.406;9.690;2024-01-10T09:11:47;42.27;;;20.70;;
64633;SDS011;51043;52.406;9.690;2024-01-10T09:14:15;36.10;;;20.00;;
64633;SDS011;51043;52.406;9.690;2024-01-10T09:16:44;36.87;;;19.63;;
64633;SDS011;51043;52.406;9.690;2024-01-10T09:19:12;37.93;;;19.17;;
64633;SDS011;51043;52.406;9.690;2024-01-10T09:21:40;40.93;;;20.00;;
64633;SDS011;51043;52.406;9.690;2024-01-10T09:24:10;38.17;;;19.83;;
64633;SDS011;51043;52.406;9.690;2024-01-10T09:26:43;34.17;;;19.43;;
64633;SDS011;51043;52.406;9.690;2024-01-10T09:29:12;39.33;;;21.53;;
64633;SDS011;51043;52.406;9.690;2024-01-10T09:31:41;37.27;;;21.73;;
64633;SDS011;51043;52.406;9.690;2024-01-10T09:34:10;37.67;;;20.57;;
64633;SDS011;51043;52.406;9.690;2024-01-10T09:36:38;35.63;;;18.77;;
64633;SDS011;51043;52.406;9.690;2024-01-10T09:39:06;37.87;;;20.37;;
64633;SDS011;51043;52.406;9.690;2024-01-10T09:41:45;34.53;;;20.33;;
64633;SDS011;51043;52.406;9.690;2024-01-10T09:44:16;34.43;;;19.93;;
64633;SDS011;51043;52.406;9.690;2024-01-10T09:46:46;35.37;;;19.77;;
64633;SDS011;51043;52.406;9.690;2024-01-10T09:49:18;38.17;;;20.87;;
64633;SDS011;51043;52.406;9.690;2024-01-10T09:51:48;36.33;;;20.60;;
64633;SDS011;51043;52.406;9.690;2024-01-10T09:54:18;32.53;;;19.53;;
64633;SDS011;51043;52.406;9.690;2024-01-10T09:56:52;38.23;;;20.80;;
64633;SDS011;51043;52.406;9.690;2024-01-10T09:59:22;35.60;;;20.03;;
64633;SDS011;51043;52.406;9.690;2024-01-10T10:01:52;40.07;;;20.23;;
64633;SDS011;51043;52.406;9.690;2024-01-10T10:04:20;38.97;;;19.50;;
64633;SDS011;51043;52.406;9.690;2024-01-10T10:06:57;33.43;;;19.77;;
64633;SDS011;51043;52.406;9.690;2024-01-10T10:09:27;37.00;;;18.80;;
64633;SDS011;51043;52.406;9.690;2024-01-10T10:11:58;35.93;;;19.43;;
64633;SDS011;51043;52.406;9.690;2024-01-10T10:14:28;35.03;;;19.27;;
64633;SDS011;51043;52.406;9.690;2024-01-10T10:17:12;34.93;;;20.20;;
64633;SDS011;51043;52.406;9.690;2024-01-10T10:19:42;46.20;;;19.77;;
64633;SDS011;51043;52.406;9.690;2024-01-10T10:22:11;35.57;;;20.60;;
64633;SDS011;51043;52.406;9.690;2024-01-10T10:24:42;37.10;;;19.80;;
64633;SDS011;51043;52.406;9.690;2024-01-10T10:27:16;38.83;;;20.83;;
64633;SDS011;51043;52.406;9.690;2024-01-10T10:29:44;36.53;;;20.13;;
64633;SDS011;51043;52.406;9.690;2024-01-10T10:32:13;37.53;;;19.57;;
64633;SDS011;51043;52.406;9.690;2024-01-10T10:34:44;40.90;;;20.17;;
64633;SDS011;51043;52.406;9.690;2024-01-10T10:37:12;36.53;;;19.97;;
64633;SDS011;51043;52.406;9.690;2024-01-10T10:39:41;40.47;;;21.13;;
64633;SDS011;51043;52.406;9.690;2024-01-10T10:42:09;37.83;;;20.47;;
64633;SDS011;51043;52.406;9.690;2024-01-10T10:44:39;37.97;;;20.93;;
64633;SDS011;51043;52.406;9.690;2024-01-10T10:47:10;34.87;;;19.03;;
64633;SDS011;51043;52.406;9.690;2024-01-10T10:49:41;36.57;;;20.63;;
64633;SDS011;51043;52.406;9.690;2024-01-10T10:52:18;34.70;;;20.13;;
64633;SDS011;51043;52.406;9.690;2024-01-10T10:54:46;38.53;;;19.40;;
64633;SDS011;51043;52.406;9.690;2024-01-10T10:57:16;35.10;;;19.93;;
64633;SDS011;51043;52.406;9.690;2024-01-10T10:59:48;43.40;;;21.40;;
64633;SDS011;51043;52.406;9.690;2024-01-10T11:02:20;38.77;;;19.93;;
64633;SDS011;51043;52.406;9.690;2024-01-10T11:04:54;32.50;;;19.93;;
64633;SDS011;51043;52.406;9.690;2024-01-10T11:07:23;37.57;;;21.03;;
64633;SDS011;51043;52.406;9.690;2024-01-10T11:09:51;36.70;;;20.50;;
64633;SDS011;51043;52.406;9.690;2024-01-10T11:12:24;45.27;;;21.47;;
64633;SDS011;51043;52.406;9.690;2024-01-10T11:15:05;41.23;;;20.30;;
64633;SDS011;51043;52.406;9.690;2024-01-10T11:20:56;27.93;;;16.73;;
64633;SDS011;51043;52.406;9.690;2024-01-10T11:23:37;42.00;;;20.77;;
64633;SDS011;51043;52.406;9.690;2024-01-10T11:26:08;34.07;;;21.53;;
64633;SDS011;51043;52.406;9.690;2024-01-10T11:28:36;33.97;;;20.87;;
64633;SDS011;51043;52.406;9.690;2024-01-10T11:31:07;38.17;;;20.57;;
64633;SDS011;51043;52.406;9.690;2024-01-10T11:33:36;46.03;;;21.23;;
64633;SDS011;51043;52.406;9.690;2024-01-10T11:36:12;37.20;;;20.73;;
64633;SDS011;51043;52.406;9.690;2024-01-10T11:38:41;40.40;;;21.60;;
64633;SDS011;51043;52.406;9.690;2024-01-10T11:41:20;35.73;;;21.13;;
64633;SDS011;51043;52.406;9.690;2024-01-10T11:46:58;35.53;;;19.90;;
64633;SDS011;51043;52.406;9.690;2024-01-10T11:49:30;35.03;;;21.23;;
64633;SDS011;51043;52.406;9.690;2024-01-10T11:51:59;37.50;;;21.97;;
64633;SDS011;51043;52.406;9.690;2024-01-10T11:54:36;41.13;;;20.83;;
64633;SDS011;51043;52.406;9.690;2024-01-10T11:57:13;34.37;;;20.60;;
64633;SDS011;51043;52.406;9.690;2024-01-10T11:59:43;35.90;;;20.83;;
64633;SDS011;51043;52.406;9.690;2024-01-10T12:02:14;35.53;;;20.90;;
64633;SDS011;51043;52.406;9.690;2024-01-10T12:04:42;33.67;;;20.13;;
64633;SDS011;51043;52.406;9.690;2024-01-10T12:07:11;40.50;;;20.70;;
64633;SDS011;51043;52.406;9.690;2024-01-10T12:09:40;35.23;;;21.47;;
64633;SDS011;51043;52.406;9.690;2024-01-10T12:12:09;35.47;;;21.07;;
64633;SDS011;51043;52.406;9.690;2024-01-10T12:14:37;39.73;;;21.63;;
64633;SDS011;51043;52.406;9.690;2024-01-10T12:17:07;39.67;;;21.50;;
64633;SDS011;51043;52.406;9.690;2024-01-10T12:19:38;41.03;;;20.57;;
64633;SDS011;51043;52.406;9.690;2024-01-10T12:22:08;37.63;;;19.30;;
64633;SDS011;51043;52.406;9.690;2024-01-10T12:24:42;34.03;;;20.77;;
64633;SDS011;51043;52.406;9.690;2024-01-10T12:27:16;37.20;;;19.80;;
64633;SDS011;51043;52.406;9.690;2024-01-10T12:29:47;36.17;;;20.20;;
64633;SDS011;51043;52.406;9.690;2024-01-10T12:32:17;38.20;;;21.30;;
64633;SDS011;51043;52.406;9.690;2024-01-10T12:34:47;32.50;;;20.27;;
64633;SDS011;51043;52.406;9.690;2024-01-10T12:37:15;36.53;;;21.43;;
64633;SDS011;51043;52.406;9.690;2024-01-10T12:39:44;35.10;;;18.03;;
64633;SDS011;51043;52.406;9.690;2024-01-10T12:42:13;36.83;;;19.27;;
64633;SDS011;51043;52.406;9.690;2024-01-10T12:44:43;37.37;;;20.67;;
64633;SDS011;51043;52.406;9.690;2024-01-10T12:47:17;38.80;;;20.33;;
64633;SDS011;51043;52.406;9.690;2024-01-10T12:49:50;37.00;;;18.97;;
64633;SDS011;51043;52.406;9.690;2024-01-10T12:52:22;41.07;;;20.87;;
64633;SDS011;51043;52.406;9.690;2024-01-10T12:54:54;34.40;;;19.97;;
64633;SDS011;51043;52.406;9.690;2024-01-10T12:57:22;40.50;;;21.73;;
64633;SDS011;51043;52.406;9.690;2024-01-10T12:59:50;37.40;;;20.13;;
64633;SDS011;51043;52.406;9.690;2024-01-10T13:02:19;36.33;;;20.80;;
64633;SDS011;51043;52.406;9.690;2024-01-10T13:04:47;36.73;;;20.57;;
64633;SDS011;51043;52.406;9.690;2024-01-10T13:07:17;64.87;;;30.10;;
64633;SDS011;51043;52.406;9.690;2024-01-10T13:09:45;39.40;;;19.73;;
64633;SDS011;51043;52.406;9.690;2024-01-10T13:12:13;46.17;;;20.83;;
64633;SDS011;51043;52.406;9.690;2024-01-10T13:14:41;37.43;;;20.97;;
64633;SDS011;51043;52.406;9.690;2024-01-10T13:17:09;38.87;;;20.50;;
64633;SDS011;51043;52.406;9.690;2024-01-10T13:19:37;37.83;;;19.97;;
64633;SDS011;51043;52.406;9.690;2024-01-10T13:22:05;32.13;;;19.73;;
64633;SDS011;51043;52.406;9.690;2024-01-10T13:24:35;29.80;;;18.90;;
64633;SDS011;51043;52.406;9.690;2024-01-10T13:27:05;37.10;;;18.27;;
64633;SDS011;51043;52.406;9.690;2024-01-10T13:29:36;36.17;;;19.37;;
64633;SDS011;51043;52.406;9.690;2024-01-10T13:32:05;35.37;;;18.90;;
64633;SDS011;51043;52.406;9.690;2024-01-10T13:34:37;32.60;;;18.50;;
64633;SDS011;51043;52.406;9.690;2024-01-10T13:37:05;33.73;;;19.43;;
64633;SDS011;51043;52.406;9.690;2024-01-10T13:39:35;38.27;;;20.40;;
64633;SDS011;51043;52.406;9.690;2024-01-10T13:42:03;36.17;;;18.60;;
64633;SDS011;51043;52.406;9.690;2024-01-10T13:44:32;36.07;;;19.37;;
64633;SDS011;51043;52.406;9.690;2024-01-10T13:47:03;32.93;;;18.83;;
64633;SDS011;51043;52.406;9.690;2024-01-10T13:49:33;34.73;;;19.70;;
64633;SDS011;51043;52.406;9.690;2024-01-10T13:52:01;30.30;;;17.07;;
64633;SDS011;51043;52.406;9.690;2024-01-10T13:54:30;36.90;;;19.53;;
64633;SDS011;51043;52.406;9.690;2024-01-10T13:57:00;34.63;;;18.73;;
64633;SDS011;51043;52.406;9.690;2024-01-10T13:59:29;37.27;;;19.50;;
64633;SDS011;51043;52.406;9.690;2024-01-10T14:01:59;38.13;;;21.73;;
64633;SDS011;51043;52.406;9.690;2024-01-10T14:04:27;39.87;;;20.17;;
64633;SDS011;51043;52.406;9.690;2024-01-10T14:06:55;35.43;;;18.20;;
64633;SDS011;51043;52.406;9.690;2024-01-10T14:09:23;39.77;;;21.27;;
64633;SDS011;51043;52.406;9.690;2024-01-10T14:11:51;41.33;;;20.87;;
64633;SDS011;51043;52.406;9.690;2024-01-10T14:14:21;37.23;;;20.77;;
64633;SDS011;51043;52.406;9.690;2024-01-10T14:16:51;33.57;;;19.80;;
64633;SDS011;51043;52.406;9.690;2024-01-10T14:19:19;38.13;;;21.20;;
64633;SDS011;51043;52.406;9.690;2024-01-10T14:21:47;36.67;;;20.67;;
64633;SDS011;51043;52.406;9.690;2024-01-10T14:24:15;33.33;;;19.90;;
64633;SDS011;51043;52.406;9.690;2024-01-10T14:26:45;36.37;;;20.03;;
64633;SDS011;51043;52.406;9.690;2024-01-10T14:29:14;39.03;;;19.87;;
64633;SDS011;51043;52.406;9.690;2024-01-10T14:31:49;39.40;;;21.47;;
64633;SDS011;51043;52.406;9.690;2024-01-10T14:34:22;35.57;;;19.27;;
64633;SDS011;51043;52.406;9.690;2024-01-10T14:36:50;39.23;;;21.03;;
64633;SDS011;51043;52.406;9.690;2024-01-10T14:39:19;35.37;;;20.33;;
64633;SDS011;51043;52.406;9.690;2024-01-10T14:41:49;39.13;;;20.20;;
64633;SDS011;51043;52.406;9.690;2024-01-10T14:44:20;35.03;;;19.27;;